Time;durP1;ratioP1;P1;durP2;ratioP2;P2;SDS_P1;SDS_P2;PMS_P1;PMS_P2;Temp;Humidity;BMP_temperature;BMP_pressure;BME280_temperature;BME280_humidity;BME280_pressure;Samples;Min_cycle;Max_cycle;Signal;HPM_P1;HPM_P2
2022/05/14 00:01:35;;;;;;;16.35;5.13;;;12.70;99.90;;;;;;5061034;28;20048;-53
2022/05/14 00:04:01;;;;;;;21.27;6.07;;;12.70;99.90;;;;;;5060856;28;20056;-53
2022/05/14 00:06:28;;;;;;;18.42;5.53;;;12.70;99.90;;;;;;5060981;28;20183;-53
2022/05/14 00:08:54;;;;;;;21.30;5.57;;;12.60;99.90;;;;;;5042259;28;20033;-53
2022/05/14 00:14:07;;;;;;;22.42;6.03;;;12.40;99.90;;;;;;5060766;28;20118;-53
2022/05/14 00:16:34;;;;;;;21.10;7.30;;;12.40;99.90;;;;;;5060655;28;20075;-50
2022/05/14 00:19:01;;;;;;;23.42;6.63;;;12.40;99.90;;;;;;5060525;28;20052;-51
2022/05/14 00:21:27;;;;;;;22.00;5.65;;;12.30;99.90;;;;;;5060318;28;20052;-50
2022/05/14 00:23:53;;;;;;;24.38;7.05;;;12.30;99.90;;;;;;5060661;28;20045;-53
2022/05/14 00:26:20;;;;;;;17.75;5.80;;;12.30;99.90;;;;;;5059931;28;20037;-53
2022/05/14 00:28:46;;;;;;;23.20;5.65;;;12.20;99.90;;;;;;5042650;28;20048;-52
2022/05/14 00:31:11;;;;;;;17.88;5.30;;;12.30;99.90;;;;;;5060343;28;20109;-53
2022/05/14 00:33:37;;;;;;;19.58;6.15;;;12.20;99.90;;;;;;5060196;28;20041;-54
2022/05/14 00:36:04;;;;;;;19.70;6.45;;;12.20;99.90;;;;;;5060392;28;20045;-53
2022/05/14 00:38:30;;;;;;;22.33;6.75;;;12.20;99.90;;;;;;5059731;28;20528;-53
2022/05/14 00:41:00;;;;;;;21.92;6.22;;;12.20;99.90;;;;;;5060397;28;20417;-54
2022/05/14 00:43:26;;;;;;;18.58;6.55;;;12.20;99.90;;;;;;5059111;28;20565;-53
2022/05/14 00:46:09;;;;;;;23.75;6.47;;;12.20;99.90;;;;;;5060077;28;20049;-53
2022/05/14 00:48:39;;;;;;;22.20;6.38;;;12.20;99.90;;;;;;5059443;28;20041;-52
2022/05/14 00:51:07;;;;;;;20.55;5.85;;;12.10;99.90;;;;;;5059474;28;20040;-54
2022/05/14 00:53:42;;;;;;;24.95;6.85;;;12.10;99.90;;;;;;5060089;28;20041;-53
2022/05/14 00:56:13;;;;;;;24.30;7.70;;;12.20;99.90;;;;;;5059301;28;20047;-53
2022/05/14 00:58:51;;;;;;;22.00;6.50;;;12.10;99.90;;;;;;5060007;28;20041;-52
2022/05/14 01:01:17;;;;;;;22.92;7.80;;;12.10;99.90;;;;;;5059597;28;20288;-53
2022/05/14 01:03:43;;;;;;;20.20;6.63;;;12.10;99.90;;;;;;5059613;28;20048;-53
2022/05/14 01:06:14;;;;;;;20.50;7.18;;;12.20;99.90;;;;;;5059744;28;20057;-50
2022/05/14 01:08:42;;;;;;;26.85;9.18;;;12.20;99.90;;;;;;5059081;28;20052;-53
2022/05/14 01:11:08;;;;;;;22.75;6.93;;;12.10;99.90;;;;;;5059660;28;20048;-52
2022/05/14 01:13:33;;;;;;;22.60;8.13;;;12.20;99.90;;;;;;5058994;28;20076;-50
2022/05/14 01:16:02;;;;;;;26.48;6.38;;;12.20;99.90;;;;;;5041270;28;20113;-52
2022/05/14 01:18:30;;;;;;;27.00;7.43;;;12.20;99.90;;;;;;5058913;28;20041;-53
2022/05/14 01:21:06;;;;;;;25.30;6.57;;;12.20;99.90;;;;;;5059299;28;20045;-52
2022/05/14 01:26:37;;;;;;;25.30;8.45;;;12.20;99.90;;;;;;5058966;28;20508;-52
2022/05/14 01:29:13;;;;;;;21.52;6.93;;;12.20;99.90;;;;;;5059244;28;20052;-53
2022/05/14 01:31:39;;;;;;;26.42;7.55;;;12.20;99.90;;;;;;5059169;28;20044;-53
2022/05/14 01:34:13;;;;;;;19.50;6.97;;;12.20;99.90;;;;;;5058917;28;20037;-52
2022/05/14 01:36:40;;;;;;;22.70;7.43;;;12.20;99.90;;;;;;5059565;28;20075;-53
2022/05/14 01:39:07;;;;;;;24.58;7.05;;;12.00;99.90;;;;;;5058695;28;20052;-52
2022/05/14 01:41:33;;;;;;;26.42;8.13;;;12.10;99.90;;;;;;5059312;28;20048;-52
2022/05/14 01:43:59;;;;;;;29.73;8.05;;;12.10;99.90;;;;;;5058836;28;20149;-50
2022/05/14 01:46:25;;;;;;;20.95;7.15;;;12.00;99.90;;;;;;5059091;28;20106;-50
2022/05/14 01:48:51;;;;;;;27.73;8.07;;;12.00;99.90;;;;;;5058797;28;20071;-50
2022/05/14 01:51:17;;;;;;;28.05;8.10;;;12.00;99.90;;;;;;5058951;28;20033;-52
2022/05/14 01:53:43;;;;;;;28.48;8.23;;;11.90;99.90;;;;;;5059290;28;20041;-52
2022/05/14 01:56:09;;;;;;;27.10;8.45;;;12.00;99.90;;;;;;5057887;28;20041;-49
2022/05/14 01:58:38;;;;;;;33.33;9.15;;;12.10;99.90;;;;;;5059172;28;20052;-53
2022/05/14 02:01:17;;;;;;;32.17;9.55;;;12.00;99.90;;;;;;5058435;28;20051;-53
2022/05/14 02:03:45;;;;;;;28.50;8.20;;;11.90;99.90;;;;;;5058999;28;20045;-52
2022/05/14 02:06:12;;;;;;;25.27;8.20;;;11.90;99.90;;;;;;5059028;28;20033;-52
2022/05/14 02:08:38;;;;;;;26.27;8.13;;;11.90;99.90;;;;;;5058502;28;20305;-52
2022/05/14 02:11:04;;;;;;;29.88;8.57;;;11.90;99.90;;;;;;5059105;28;20049;-52
2022/05/14 02:13:30;;;;;;;26.77;8.52;;;11.80;99.90;;;;;;5058198;28;20258;-53
2022/05/14 02:15:57;;;;;;;26.83;8.35;;;11.80;99.90;;;;;;5058772;28;20075;-53
2022/05/14 02:18:23;;;;;;;29.10;8.68;;;11.80;99.90;;;;;;5058392;28;20078;-52
2022/05/14 02:20:49;;;;;;;25.35;8.68;;;11.70;99.90;;;;;;5058780;28;20047;-50
2022/05/14 02:23:15;;;;;;;26.88;7.68;;;11.70;99.90;;;;;;5040857;28;20045;-50
2022/05/14 02:25:42;;;;;;;29.13;8.73;;;11.60;99.90;;;;;;5058515;28;20091;-53
2022/05/14 02:28:08;;;;;;;29.42;9.20;;;11.60;99.90;;;;;;5041104;28;20052;-52
2022/05/14 02:30:34;;;;;;;27.85;8.95;;;11.50;99.90;;;;;;5058077;28;20041;-52
2022/05/14 02:33:00;;;;;;;23.70;8.82;;;11.50;99.90;;;;;;5058692;28;20071;-53
2022/05/14 02:35:26;;;;;;;28.38;9.23;;;11.50;99.90;;;;;;5058663;28;20096;-51
2022/05/14 02:37:52;;;;;;;32.42;8.32;;;11.50;99.90;;;;;;5058668;28;20072;-52
2022/05/14 02:40:17;;;;;;;36.20;9.70;;;11.40;99.90;;;;;;5058752;28;20076;-51
2022/05/14 02:42:44;;;;;;;29.02;8.93;;;11.30;99.90;;;;;;5058619;28;20057;-51
2022/05/14 02:45:10;;;;;;;28.83;9.98;;;11.30;99.90;;;;;;5058654;28;20045;-52
2022/05/14 02:47:36;;;;;;;28.98;9.55;;;11.30;99.90;;;;;;5057616;28;20472;-50
2022/05/14 02:50:03;;;;;;;30.02;9.65;;;11.30;99.90;;;;;;5058730;28;20072;-52
2022/05/14 02:52:29;;;;;;;27.73;10.40;;;11.20;99.90;;;;;;5058122;28;20096;-52
2022/05/14 02:54:54;;;;;;;34.38;9.77;;;11.20;99.90;;;;;;5058490;28;20080;-51
2022/05/14 02:57:20;;;;;;;36.40;10.07;;;11.20;99.90;;;;;;5058472;28;20048;-50
2022/05/14 02:59:46;;;;;;;29.17;9.20;;;11.20;99.90;;;;;;5058489;28;20048;-53
2022/05/14 03:02:11;;;;;;;34.80;9.15;;;11.20;99.90;;;;;;5040836;28;20045;-52
2022/05/14 03:04:40;;;;;;;31.13;9.43;;;11.20;99.90;;;;;;5057895;28;20045;-53
2022/05/14 03:07:08;;;;;;;34.38;10.50;;;11.10;99.90;;;;;;5061402;28;20064;-51
2022/05/14 03:09:36;;;;;;;34.10;10.77;;;11.10;99.90;;;;;;5061416;28;20052;-51
2022/05/14 03:12:02;;;;;;;32.53;9.45;;;11.10;99.90;;;;;;5061859;28;20582;-53
2022/05/14 03:14:28;;;;;;;38.08;10.25;;;11.10;99.90;;;;;;5062007;28;20049;-52
2022/05/14 03:16:54;;;;;;;35.28;11.70;;;11.00;99.90;;;;;;5061425;28;20520;-51
2022/05/14 03:19:20;;;;;;;25.67;8.45;;;11.10;99.90;;;;;;5044130;28;20549;-52
2022/05/14 03:21:46;;;;;;;34.25;9.32;;;11.00;99.90;;;;;;5061330;28;20481;-51
2022/05/14 03:24:12;;;;;;;38.03;9.07;;;10.90;99.90;;;;;;5061753;28;20078;-52
2022/05/14 03:26:39;;;;;;;39.83;9.38;;;10.80;99.90;;;;;;5061192;28;20045;-53
2022/05/14 03:29:05;;;;;;;34.15;9.20;;;10.90;99.90;;;;;;5061574;28;20116;-53
2022/05/14 03:31:33;;;;;;;37.20;9.70;;;10.80;99.90;;;;;;5061190;28;20045;-53
2022/05/14 03:34:00;;;;;;;33.08;9.77;;;10.90;99.90;;;;;;5061604;28;20088;-53
2022/05/14 03:36:25;;;;;;;30.75;8.73;;;10.90;99.90;;;;;;5061567;28;20049;-53
2022/05/14 03:38:53;;;;;;;30.65;8.82;;;10.80;99.90;;;;;;5042981;28;20125;-54
2022/05/14 03:41:18;;;;;;;28.95;9.20;;;10.80;99.90;;;;;;5061707;28;20049;-53
2022/05/14 03:43:44;;;;;;;28.48;9.48;;;10.80;99.90;;;;;;5060773;28;20140;-53
2022/05/14 03:46:10;;;;;;;29.80;9.10;;;10.80;99.90;;;;;;5061507;28;20048;-52
2022/05/14 03:48:36;;;;;;;34.45;9.88;;;10.80;99.90;;;;;;5060713;28;20109;-51
2022/05/14 03:51:04;;;;;;;34.67;10.18;;;10.80;99.90;;;;;;5061266;28;20044;-53
2022/05/14 03:53:30;;;;;;;36.65;10.15;;;10.80;99.90;;;;;;5061153;28;20044;-51
2022/05/14 03:55:56;;;;;;;30.90;8.85;;;10.90;99.90;;;;;;5060462;28;20052;-52
2022/05/14 03:58:22;;;;;;;39.10;10.43;;;10.80;99.90;;;;;;5061269;28;20084;-53
2022/05/14 04:00:48;;;;;;;32.78;9.50;;;10.80;99.90;;;;;;5060362;28;20083;-53
2022/05/14 04:03:14;;;;;;;34.20;10.05;;;10.80;99.90;;;;;;5061152;28;20105;-51
2022/05/14 04:05:40;;;;;;;30.73;10.27;;;10.80;99.90;;;;;;5060777;28;20053;-51
2022/05/14 04:08:06;;;;;;;35.63;10.02;;;10.80;99.90;;;;;;5060901;28;20037;-53
2022/05/14 04:10:32;;;;;;;27.63;9.27;;;10.70;99.90;;;;;;5060674;28;20083;-51
2022/05/14 04:13:01;;;;;;;28.40;8.52;;;10.70;99.90;;;;;;5060192;28;20045;-54
2022/05/14 04:15:27;;;;;;;32.78;8.93;;;10.80;99.90;;;;;;5061150;28;20052;-53
2022/05/14 04:17:54;;;;;;;25.73;9.40;;;10.70;99.90;;;;;;5059366;28;20037;-50
2022/05/14 04:20:20;;;;;;;35.05;8.90;;;10.80;99.90;;;;;;5060663;28;20033;-52
2022/05/14 04:22:46;;;;;;;33.40;10.82;;;10.80;99.90;;;;;;5042496;28;20049;-51
2022/05/14 04:25:12;;;;;;;32.28;8.75;;;10.80;99.90;;;;;;5060444;28;20052;-50
2022/05/14 04:27:40;;;;;;;32.13;9.35;;;10.80;99.90;;;;;;5042803;28;20041;-53
2022/05/14 04:30:07;;;;;;;32.95;9.77;;;10.70;99.90;;;;;;5041922;28;20539;-53
2022/05/14 04:32:32;;;;;;;32.92;10.10;;;10.80;99.90;;;;;;5060824;28;20051;-52
2022/05/14 04:34:59;;;;;;;32.72;10.18;;;10.90;99.90;;;;;;5059963;28;20050;-53
2022/05/14 04:37:25;;;;;;;28.30;8.20;;;10.90;99.90;;;;;;5060333;28;20064;-53
2022/05/14 04:39:51;;;;;;;29.92;9.02;;;11.00;99.90;;;;;;5060094;28;20055;-54
2022/05/14 04:42:17;;;;;;;34.13;9.82;;;11.00;99.90;;;;;;5059831;28;20048;-51
2022/05/14 04:44:42;;;;;;;29.55;9.23;;;11.00;99.90;;;;;;5060031;28;20060;-54
2022/05/14 04:47:09;;;;;;;33.92;8.98;;;11.10;99.90;;;;;;5059403;28;20503;-55
2022/05/14 04:49:43;;;;;;;35.50;9.35;;;11.20;99.90;;;;;;5060325;28;20531;-53
2022/05/14 04:52:09;;;;;;;25.52;8.13;;;11.20;99.90;;;;;;5059634;28;20049;-53
2022/05/14 04:54:35;;;;;;;32.85;9.55;;;11.20;99.90;;;;;;5060063;28;20067;-50
2022/05/14 04:57:01;;;;;;;29.20;8.13;;;11.30;99.90;;;;;;5059633;28;20053;-53
2022/05/14 04:59:27;;;;;;;24.65;8.80;;;11.40;99.90;;;;;;5060073;28;20104;-53
2022/05/14 05:04:41;;;;;;;24.63;7.95;;;11.50;99.90;;;;;;5059265;28;20083;-52
2022/05/14 05:07:07;;;;;;;32.92;9.60;;;11.60;99.90;;;;;;5059800;28;20049;-52
2022/05/14 05:09:33;;;;;;;33.65;11.00;;;11.70;99.90;;;;;;5059572;28;20056;-53
2022/05/14 05:11:59;;;;;;;39.17;9.93;;;11.70;99.90;;;;;;5059704;28;20402;-52
2022/05/14 05:14:25;;;;;;;32.75;9.52;;;11.80;99.90;;;;;;5059625;28;20045;-51
2022/05/14 05:16:51;;;;;;;35.15;9.85;;;11.80;99.90;;;;;;5059321;28;20049;-52
2022/05/14 05:19:18;;;;;;;31.60;9.63;;;11.80;99.90;;;;;;5059490;28;20488;-51
2022/05/14 05:21:44;;;;;;;32.60;8.70;;;11.90;99.90;;;;;;5058861;28;20065;-53
2022/05/14 05:24:10;;;;;;;32.30;8.45;;;12.00;99.90;;;;;;5059715;28;20051;-49
2022/05/14 05:26:37;;;;;;;29.20;8.95;;;12.00;99.90;;;;;;5059154;28;20072;-49
2022/05/14 05:29:04;;;;;;;25.45;9.13;;;12.10;99.90;;;;;;5058765;28;20063;-50
2022/05/14 05:31:31;;;;;;;31.20;10.35;;;12.10;99.90;;;;;;5059131;28;20209;-52
2022/05/14 05:34:00;;;;;;;31.73;9.10;;;12.20;99.90;;;;;;5059200;28;20044;-52
2022/05/14 05:36:26;;;;;;;27.58;8.88;;;12.20;99.90;;;;;;5059231;28;20052;-51
2022/05/14 05:38:52;;;;;;;24.33;8.52;;;12.20;99.90;;;;;;5058709;28;20049;-53
2022/05/14 05:41:19;;;;;;;33.45;10.35;;;12.20;99.90;;;;;;5059552;28;20074;-54
2022/05/14 05:43:46;;;;;;;27.10;10.15;;;12.30;99.90;;;;;;5058554;28;20044;-53
2022/05/14 05:46:12;;;;;;;26.85;8.57;;;12.50;99.90;;;;;;5059206;28;20053;-53
2022/05/14 05:48:39;;;;;;;33.33;10.25;;;12.60;99.90;;;;;;5040754;28;20041;-54
2022/05/14 05:51:04;;;;;;;26.70;8.73;;;12.60;99.90;;;;;;5058964;28;20562;-54
2022/05/14 05:58:59;;;;;;;30.38;8.27;;;12.80;99.90;;;;;;5055785;28;20055;-54
2022/05/14 06:01:25;;;;;;;28.40;7.45;;;13.00;99.90;;;;;;5055283;28;20037;-52
2022/05/14 06:03:51;;;;;;;24.45;7.43;;;13.00;99.90;;;;;;5055342;28;20130;-53
2022/05/14 06:06:21;;;;;;;25.95;7.38;;;13.20;99.90;;;;;;5055087;28;20052;-53
2022/05/14 06:08:50;;;;;;;24.30;7.15;;;13.10;99.90;;;;;;5053824;28;20044;-54
2022/05/14 06:11:17;;;;;;;26.90;8.50;;;13.30;99.90;;;;;;5055769;28;20603;-51
2022/05/14 06:13:43;;;;;;;29.27;8.35;;;13.30;99.90;;;;;;5055198;28;20477;-53
2022/05/14 06:16:10;;;;;;;22.20;7.43;;;13.30;99.90;;;;;;5055614;28;20076;-51
2022/05/14 06:18:37;;;;;;;23.70;7.13;;;13.40;99.90;;;;;;5054846;28;20078;-52
2022/05/14 06:21:04;;;;;;;29.02;6.50;;;13.50;99.90;;;;;;5055524;28;20053;-53
2022/05/14 06:23:31;;;;;;;25.77;7.72;;;13.60;99.90;;;;;;5055925;28;20049;-52
2022/05/14 06:25:56;;;;;;;21.33;6.45;;;13.70;99.90;;;;;;5055260;28;20044;-54
2022/05/14 06:28:22;;;;;;;25.05;6.03;;;13.80;99.90;;;;;;5055806;28;20132;-54
2022/05/14 06:30:48;;;;;;;22.45;6.03;;;13.80;99.90;;;;;;5054717;28;20049;-54
2022/05/14 06:33:14;;;;;;;23.35;6.90;;;13.80;99.90;;;;;;5055683;28;20720;-52
2022/05/14 06:35:40;;;;;;;21.67;5.97;;;13.80;99.90;;;;;;5055394;28;20081;-53
2022/05/14 06:38:07;;;;;;;22.55;5.55;;;13.90;99.90;;;;;;5055504;28;20040;-54
2022/05/14 06:40:34;;;;;;;17.20;4.80;;;14.00;99.90;;;;;;5056013;28;20048;-52
2022/05/14 06:43:00;;;;;;;21.60;6.28;;;13.90;99.90;;;;;;5058283;28;20051;-53
2022/05/14 06:45:26;;;;;;;20.10;5.20;;;14.00;99.90;;;;;;5058506;28;20104;-53
2022/05/14 06:47:53;;;;;;;20.77;5.20;;;14.00;99.90;;;;;;5023448;28;20067;-54
2022/05/14 06:50:19;;;;;;;25.42;5.55;;;14.10;99.90;;;;;;5058197;28;20136;-54
2022/05/14 06:52:49;;;;;;;22.88;5.03;;;14.20;99.90;;;;;;5058325;28;20041;-53
2022/05/14 06:55:19;;;;;;;18.40;5.25;;;14.20;99.90;;;;;;5057239;28;20059;-53
2022/05/14 06:57:46;;;;;;;16.80;5.05;;;14.20;99.90;;;;;;5040231;28;20167;-53
2022/05/14 07:00:12;;;;;;;24.65;6.07;;;14.30;99.90;;;;;;5057104;28;20045;-53
2022/05/14 07:02:39;;;;;;;24.45;5.90;;;14.30;99.90;;;;;;5058361;28;20053;-54
2022/05/14 07:07:50;;;;;;;20.77;5.10;;;14.40;99.90;;;;;;5057220;28;20599;-53
2022/05/14 07:10:15;;;;;;;23.55;5.10;;;14.60;99.90;;;;;;5057586;28;20105;-53
2022/05/14 07:12:42;;;;;;;18.15;4.63;;;14.70;99.90;;;;;;5057057;28;20131;-52
2022/05/14 07:15:09;;;;;;;16.70;4.50;;;14.90;99.90;;;;;;5057846;28;21431;-55
2022/05/14 07:17:34;;;;;;;25.40;5.63;;;14.80;99.90;;;;;;5035475;28;20048;-53
2022/05/14 07:20:00;;;;;;;19.75;4.65;;;14.80;99.90;;;;;;5057512;28;20056;-53
2022/05/14 07:22:26;;;;;;;16.30;4.43;;;14.80;99.90;;;;;;5057330;28;20713;-54
2022/05/14 07:24:52;;;;;;;20.45;4.53;;;14.80;99.90;;;;;;5057333;28;20055;-53
2022/05/14 07:27:18;;;;;;;18.73;5.78;;;14.80;99.90;;;;;;5039829;28;20053;-53
2022/05/14 07:29:45;;;;;;;20.98;4.88;;;14.90;99.90;;;;;;5056767;28;20052;-54
2022/05/14 07:32:13;;;;;;;17.95;5.70;;;14.90;99.90;;;;;;5057442;28;20502;-53
2022/05/14 07:34:40;;;;;;;17.33;3.97;;;14.90;99.90;;;;;;5056459;28;20041;-54
2022/05/14 07:37:13;;;;;;;19.08;4.75;;;15.00;99.90;;;;;;5057707;28;20079;-53
2022/05/14 07:39:47;;;;;;;19.05;5.43;;;15.00;99.90;;;;;;5057176;28;20055;-51
2022/05/14 07:42:18;;;;;;;22.80;4.80;;;15.20;99.90;;;;;;5056980;28;20063;-54
2022/05/14 07:44:48;;;;;;;16.67;4.47;;;15.30;99.90;;;;;;5038965;28;20060;-54
2022/05/14 07:47:14;;;;;;;15.85;3.88;;;15.30;99.90;;;;;;5055837;28;20057;-53
2022/05/14 07:49:43;;;;;;;18.77;4.95;;;15.40;99.90;;;;;;5057152;28;20048;-54
2022/05/14 07:52:09;;;;;;;19.50;3.75;;;15.40;99.90;;;;;;5055643;28;20045;-54
2022/05/14 07:54:35;;;;;;;17.25;5.00;;;15.50;99.90;;;;;;5056887;28;20052;-52
2022/05/14 07:57:02;;;;;;;15.63;5.15;;;15.50;99.90;;;;;;5056270;28;20151;-52
2022/05/14 07:59:28;;;;;;;19.55;4.40;;;15.50;99.90;;;;;;5056043;28;20053;-54
2022/05/14 08:01:53;;;;;;;19.25;5.18;;;15.60;99.90;;;;;;5056975;28;20056;-52
2022/05/14 08:04:19;;;;;;;21.58;5.32;;;15.60;99.90;;;;;;5055848;28;20584;-53
2022/05/14 08:06:45;;;;;;;18.70;4.53;;;15.60;99.90;;;;;;5056994;28;20120;-54
2022/05/14 08:09:10;;;;;;;19.63;5.13;;;15.70;99.90;;;;;;5037657;28;20048;-53
2022/05/14 08:11:36;;;;;;;17.45;4.85;;;15.70;99.90;;;;;;5038668;28;20053;-53
2022/05/14 08:14:02;;;;;;;19.95;4.47;;;15.70;99.90;;;;;;5056630;28;20052;-53
2022/05/14 08:16:27;;;;;;;18.48;5.20;;;16.00;99.90;;;;;;5056253;28;20048;-54
2022/05/14 08:18:53;;;;;;;19.88;4.45;;;16.10;99.90;;;;;;5055790;28;20044;-53
2022/05/14 08:26:52;;;;;;;17.98;3.80;;;15.70;99.90;;;;;;5055847;28;20194;-54
2022/05/14 08:29:19;;;;;;;16.20;4.25;;;15.90;99.90;;;;;;5037565;28;20584;-56
2022/05/14 08:31:45;;;;;;;21.33;4.18;;;16.00;99.90;;;;;;5055776;28;20071;-53
2022/05/14 08:34:11;;;;;;;16.63;4.10;;;16.10;99.90;;;;;;5036993;28;20120;-54
2022/05/14 08:36:36;;;;;;;15.25;3.88;;;16.20;99.90;;;;;;5056589;28;20148;-54
2022/05/14 08:39:03;;;;;;;16.35;4.32;;;16.20;99.90;;;;;;5055049;28;20055;-53
2022/05/14 08:41:29;;;;;;;20.83;5.15;;;16.30;99.90;;;;;;5056295;28;20087;-55
2022/05/14 08:44:00;;;;;;;13.23;3.30;;;16.20;99.90;;;;;;5055361;28;20053;-53
2022/05/14 08:46:27;;;;;;;15.75;4.50;;;16.30;99.90;;;;;;5055388;28;20206;-54
2022/05/14 08:49:00;;;;;;;18.88;4.70;;;16.30;99.90;;;;;;5055870;28;20052;-53
2022/05/14 08:51:33;;;;;;;19.60;3.53;;;16.60;99.90;;;;;;5055160;28;20056;-55
2022/05/14 08:54:00;;;;;;;21.88;4.78;;;16.80;99.90;;;;;;5056404;28;20473;-54
2022/05/14 08:56:36;;;;;;;17.70;4.53;;;16.80;99.90;;;;;;5054867;28;20076;-53
2022/05/14 08:59:36;;;;;;;18.67;4.80;;;16.90;99.90;;;;;;5055675;28;20108;-56
2022/05/14 09:02:14;;;;;;;18.42;4.35;;;16.70;99.90;;;;;;5055914;28;20064;-55
2022/05/14 09:04:39;;;;;;;16.15;4.47;;;16.90;99.90;;;;;;5054370;28;21417;-54
2022/05/14 09:07:06;;;;;;;20.67;4.68;;;16.70;99.90;;;;;;5055618;28;20052;-53
2022/05/14 09:09:32;;;;;;;20.73;5.03;;;16.80;99.90;;;;;;5055105;28;20467;-54
2022/05/14 09:12:02;;;;;;;15.88;4.10;;;16.60;99.90;;;;;;5055031;28;20049;-53
2022/05/14 09:14:37;;;;;;;19.63;4.30;;;16.40;99.90;;;;;;5055680;28;20080;-53
2022/05/14 09:17:21;;;;;;;21.23;4.90;;;16.80;99.90;;;;;;5036363;28;20044;-54
2022/05/14 09:19:50;;;;;;;19.42;4.28;;;16.90;99.90;;;;;;5055422;28;20098;-54
2022/05/14 09:22:22;;;;;;;17.48;4.97;;;17.00;99.90;;;;;;5054668;28;20100;-54
2022/05/14 09:25:21;;;;;;;19.55;4.80;;;16.90;99.90;;;;;;5054809;28;20108;-55
2022/05/14 09:28:02;;;;;;;19.27;4.45;;;16.50;99.90;;;;;;5055444;28;20071;-55
2022/05/14 09:30:35;;;;;;;18.98;4.60;;;16.30;99.90;;;;;;5054494;28;20045;-55
2022/05/14 09:33:02;;;;;;;17.75;4.47;;;16.40;99.90;;;;;;5054792;28;20040;-53
2022/05/14 09:35:32;;;;;;;17.80;3.97;;;16.60;99.90;;;;;;5054840;28;20404;-55
2022/05/14 09:38:18;;;;;;;17.13;4.10;;;16.70;99.90;;;;;;5054330;28;20051;-59
2022/05/14 09:40:44;;;;;;;21.20;6.70;;;16.70;99.90;;;;;;5055567;28;20040;-54
2022/05/14 09:43:15;;;;;;;16.65;4.55;;;16.70;99.90;;;;;;5053689;28;20071;-55
2022/05/14 09:45:56;;;;;;;16.17;4.07;;;16.50;99.90;;;;;;5037980;28;20057;-54
2022/05/14 09:48:31;;;;;;;19.70;5.20;;;16.80;99.90;;;;;;5037943;28;20052;-54
2022/05/14 09:50:59;;;;;;;15.30;4.07;;;17.20;99.90;;;;;;5037849;28;20050;-54
2022/05/14 09:53:28;;;;;;;20.75;4.93;;;17.20;99.90;;;;;;5038461;28;20041;-53
2022/05/14 09:56:14;;;;;;;18.10;4.32;;;17.10;99.90;;;;;;5037124;28;20038;-53
2022/05/14 09:59:10;;;;;;;16.33;4.85;;;17.20;99.90;;;;;;5017535;28;20060;-54
2022/05/14 10:01:58;;;;;;;19.98;4.07;;;17.10;99.90;;;;;;5038418;28;20124;-52
2022/05/14 10:04:52;;;;;;;23.17;4.43;;;17.30;99.90;;;;;;5037142;28;20536;-53
2022/05/14 10:07:47;;;;;;;15.30;3.75;;;17.00;99.90;;;;;;5037858;28;20049;-52
2022/05/14 10:10:43;;;;;;;20.92;4.03;;;17.20;99.90;;;;;;5032149;28;20081;-54
2022/05/14 10:13:14;;;;;;;22.80;4.60;;;17.30;99.90;;;;;;5037246;28;20033;-54
2022/05/14 10:15:50;;;;;;;17.93;4.63;;;17.60;99.90;;;;;;5038462;28;20071;-54
2022/05/14 10:18:31;;;;;;;19.30;4.75;;;17.90;99.90;;;;;;5041892;28;20299;-54
2022/05/14 10:21:17;;;;;;;20.48;5.07;;;17.60;99.90;;;;;;5041611;28;20053;-55
2022/05/14 10:26:45;;;;;;;18.10;4.40;;;17.50;99.90;;;;;;5041674;28;20056;-53
2022/05/14 10:29:25;;;;;;;19.58;4.88;;;17.90;99.90;;;;;;5041465;28;20064;-55
2022/05/14 10:32:03;;;;;;;15.60;4.30;;;18.00;99.90;;;;;;5042149;28;20037;-54
2022/05/14 10:34:40;;;;;;;18.45;4.95;;;18.20;99.90;;;;;;5022879;28;20176;-54
2022/05/14 10:37:33;;;;;;;18.77;4.68;;;18.30;99.90;;;;;;5041827;28;20195;-53
2022/05/14 10:40:07;;;;;;;22.70;5.15;;;17.90;99.90;;;;;;5041048;28;20063;-54
2022/05/14 10:42:53;;;;;;;15.20;4.93;;;18.20;99.90;;;;;;5040727;28;20049;-54
2022/05/14 10:45:22;;;;;;;20.55;4.85;;;18.20;99.90;;;;;;5058575;28;20061;-53
2022/05/14 10:47:58;;;;;;;20.98;5.22;;;17.60;99.90;;;;;;5059755;28;20177;-53
2022/05/14 10:50:24;;;;;;;18.92;4.60;;;17.50;99.90;;;;;;5060391;28;20075;-52
2022/05/14 10:52:52;;;;;;;19.65;4.45;;;17.70;99.90;;;;;;5043340;28;20049;-53
2022/05/14 10:55:35;;;;;;;19.70;4.63;;;17.80;99.90;;;;;;5059824;28;20060;-54
2022/05/14 10:58:07;;;;;;;20.70;5.45;;;17.90;99.90;;;;;;5059937;28;20036;-53
2022/05/14 11:00:41;;;;;;;19.05;4.93;;;17.70;99.90;;;;;;5057594;28;20043;-53
2022/05/14 11:03:29;;;;;;;18.55;4.35;;;17.70;99.90;;;;;;5058820;28;20079;-53
2022/05/14 11:06:01;;;;;;;21.63;4.97;;;17.80;99.90;;;;;;5060827;28;20088;-53
2022/05/14 11:08:45;;;;;;;17.55;4.57;;;18.10;99.90;;;;;;5059056;28;20044;-56
2022/05/14 11:11:15;;;;;;;20.58;4.78;;;18.30;99.90;;;;;;5059647;28;20033;-53
2022/05/14 11:13:41;;;;;;;21.13;5.63;;;18.50;99.90;;;;;;5042666;28;20125;-56
2022/05/14 11:16:11;;;;;;;19.40;4.78;;;18.50;99.90;;;;;;5060430;28;20049;-54
2022/05/14 11:18:52;;;;;;;20.42;5.20;;;18.90;99.90;;;;;;5060671;28;20048;-53
2022/05/14 11:21:31;;;;;;;22.67;5.43;;;18.80;99.90;;;;;;5041802;28;20085;-54
2022/05/14 11:23:59;;;;;;;22.55;4.78;;;19.10;99.90;;;;;;5060449;28;20052;-55
2022/05/14 11:26:26;;;;;;;18.13;4.85;;;19.00;99.90;;;;;;5041526;28;20104;-53
2022/05/14 11:29:09;;;;;;;19.33;5.75;;;19.20;99.90;;;;;;5041240;28;20040;-53
2022/05/14 11:31:39;;;;;;;29.05;6.07;;;19.10;99.90;;;;;;5060365;28;20490;-53
2022/05/14 11:34:17;;;;;;;18.55;5.18;;;19.30;99.90;;;;;;5041387;28;20049;-53
2022/05/14 11:36:49;;;;;;;24.17;4.90;;;19.10;99.90;;;;;;5060581;28;20051;-54
2022/05/14 11:39:21;;;;;;;19.70;4.43;;;19.20;99.90;;;;;;5059749;28;20039;-54
2022/05/14 11:41:48;;;;;;;20.98;4.80;;;18.70;99.90;;;;;;5060457;28;20041;-53
2022/05/14 11:44:38;;;;;;;21.13;5.28;;;18.50;99.90;;;;;;5060241;28;20053;-54
2022/05/14 11:47:20;;;;;;;21.27;4.85;;;18.50;99.90;;;;;;5059197;28;20049;-53
2022/05/14 11:49:47;;;;;;;19.98;5.40;;;18.40;99.90;;;;;;5060605;28;20829;-54
2022/05/14 11:52:43;;;;;;;17.67;4.95;;;18.40;99.90;;;;;;5059080;28;20503;-53
2022/05/14 11:55:20;;;;;;;21.73;5.53;;;18.20;99.90;;;;;;5058675;28;20099;-54
2022/05/14 11:58:11;;;;;;;22.42;5.18;;;18.10;99.90;;;;;;5059729;28;20179;-53
2022/05/14 12:00:39;;;;;;;22.60;5.47;;;18.00;99.90;;;;;;5059267;28;20136;-54
2022/05/14 12:03:15;;;;;;;16.40;4.13;;;17.80;99.90;;;;;;5041094;28;20041;-54
2022/05/14 12:05:52;;;;;;;21.13;3.90;;;18.00;99.90;;;;;;5059859;28;20095;-53
2022/05/14 12:08:36;;;;;;;19.10;4.50;;;18.30;99.90;;;;;;5059109;28;20052;-54
2022/05/14 12:11:38;;;;;;;21.40;4.68;;;18.10;99.90;;;;;;5060194;28;20075;-54
2022/05/14 12:14:09;;;;;;;23.55;5.20;;;18.00;99.90;;;;;;5005929;28;20065;-54
2022/05/14 12:16:48;;;;;;;23.83;4.90;;;18.00;99.90;;;;;;5059159;28;20092;-54
2022/05/14 12:19:17;;;;;;;18.33;4.82;;;18.00;99.90;;;;;;5059833;28;20491;-54
2022/05/14 12:21:54;;;;;;;21.15;5.10;;;17.80;99.90;;;;;;5058925;28;20044;-54
2022/05/14 12:24:22;;;;;;;18.02;4.13;;;17.70;99.90;;;;;;5059780;28;20056;-54
2022/05/14 12:26:48;;;;;;;23.13;5.20;;;17.80;99.90;;;;;;5059319;28;20045;-54
2022/05/14 12:29:25;;;;;;;21.42;4.50;;;17.80;99.90;;;;;;5059045;28;20050;-53
2022/05/14 12:34:53;;;;;;;17.98;4.32;;;17.80;99.90;;;;;;5058988;28;20060;-55
2022/05/14 12:37:54;;;;;;;20.05;4.80;;;18.30;99.90;;;;;;5059277;28;20075;-53
2022/05/14 12:40:26;;;;;;;19.85;5.05;;;18.40;99.90;;;;;;5037385;28;20057;-54
2022/05/14 12:42:52;;;;;;;18.25;5.00;;;18.30;99.90;;;;;;5058371;28;20057;-54
2022/05/14 12:45:19;;;;;;;21.25;6.63;;;18.00;99.90;;;;;;5059215;28;20775;-53
2022/05/14 12:47:46;;;;;;;22.77;4.85;;;17.90;99.90;;;;;;5058272;28;20195;-51
2022/05/14 12:50:32;;;;;;;21.35;4.43;;;18.20;99.90;;;;;;5058934;28;20045;-53
2022/05/14 12:53:03;;;;;;;22.48;5.10;;;18.20;99.90;;;;;;5059014;28;20041;-54
2022/05/14 12:55:31;;;;;;;23.27;5.35;;;18.20;99.90;;;;;;5058327;28;20096;-55
2022/05/14 12:57:59;;;;;;;20.05;5.15;;;18.60;99.90;;;;;;5059457;28;20092;-54
2022/05/14 13:00:26;;;;;;;19.60;4.78;;;18.50;99.90;;;;;;5057999;28;20049;-53
2022/05/14 13:03:27;;;;;;;18.38;4.78;;;18.40;99.90;;;;;;5058958;28;20040;-54
2022/05/14 13:05:57;;;;;;;20.57;4.73;;;18.60;99.90;;;;;;5058396;28;20063;-53
2022/05/14 13:08:26;;;;;;;19.80;5.55;;;18.80;99.90;;;;;;5057592;28;20049;-54
2022/05/14 13:10:55;;;;;;;27.35;5.68;;;18.80;99.90;;;;;;5058999;28;20045;-54
2022/05/14 13:13:42;;;;;;;18.95;4.68;;;19.10;99.90;;;;;;5057963;28;20045;-54
2022/05/14 13:16:20;;;;;;;21.52;5.07;;;19.30;99.90;;;;;;5058324;28;20103;-53
2022/05/14 13:18:50;;;;;;;20.08;5.53;;;18.90;99.90;;;;;;5040591;28;20045;-54